Latest Weather Observations for Moruya Airport

IDN60801

Issued at 8:02 am EST Saturday 28 May 2016 (issued every 30 minutes, with the page automatically refreshed every 10 minutes)

About weather observations | Map of weather stations | Latest weather observations for NSW | Other Formats
Station Details ID: 069148 Name: MORUYA AIRPORT AWS Lat: -35.90 Lon: 150.14 Height: 4.0 m
Data from the previous 72 hours. | See also: Recent months at Moruya Airport
Date/Time
EST
Temp
°C
App
Temp
°C
Dew
Point
Rel
Hum
%
Delta-T
°C
Wind Press
QNH
hPa
Press
MSL
hPa
Rain
since 9 am
mm
Dir
 
Spd
km/h
Gust
km/h
Spd
kts
Gust
kts
28/07:30am 4.0 1.1 1.5 84 1.0 WSW 6 11 3 6 1006.6 1006.5 0.0
28/07:00am 3.5 0.8 0.0 78 1.3 WNW 4 9 2 5 1006.4 1006.3 0.0
28/06:30am 4.5 1.5 0.6 76 1.5 W 6 7 3 4 1006.3 1006.2 0.0
28/06:00am 5.6 1.9 0.2 68 2.1 WSW 9 13 5 7 1006.1 1006.0 0.0
28/05:30am 6.9 3.3 0.8 65 2.4 WSW 9 13 5 7 1005.9 1005.8 0.0
28/05:00am 6.7 3.5 0.8 66 2.3 WNW 7 11 4 6 1005.8 1005.7 0.0
28/04:30am 6.6 3.4 0.9 67 2.3 WNW 7 13 4 7 1005.7 1005.6 0.0
28/04:00am 7.6 4.0 0.8 62 2.7 W 9 13 5 7 1005.4 1005.3 0.0
28/03:30am 5.8 2.9 1.7 75 1.6 W 6 9 3 5 1005.6 1005.5 0.0
28/03:00am 5.4 2.7 2.9 84 1.0 W 6 9 3 5 1005.5 1005.4 0.0
28/02:30am 4.8 1.9 1.3 78 1.4 WNW 6 7 3 4 1005.9 1005.8 0.0
28/02:00am 5.1 2.0 1.4 77 1.5 W 7 9 4 5 1005.7 1005.6 0.0
28/01:30am 5.2 2.2 1.9 79 1.3 W 7 11 4 6 1005.8 1005.7 0.0
28/01:00am 5.3 2.4 2.8 84 1.0 WNW 7 11 4 6 1005.9 1005.8 0.0
28/12:30am 5.7 2.9 3.2 84 1.0 WNW 7 11 4 6 1005.8 1005.7 0.0
28/12:00am 5.8 4.3 3.0 82 1.2 CALM 0 6 0 3 1006.0 1005.9 0.0
 
Date/Time
EST
Temp
°C
App
Temp
°C
Dew
Point
Rel
Hum
%
Delta-T
°C
Wind Press
QNH
hPa
Press
MSL
hPa
Rain
since 9 am
mm
Dir
 
Spd
km/h
Gust
km/h
Spd
kts
Gust
kts
27/11:30pm 6.2 3.3 2.8 79 1.4 WSW 7 7 4 4 1005.8 1005.7 0.0
27/11:00pm 7.4 4.5 2.7 72 2.0 W 7 11 4 6 1005.8 1005.7 0.0
27/10:30pm 7.6 4.7 2.5 70 2.1 WNW 7 9 4 5 1005.6 1005.5 0.0
27/10:00pm 7.8 4.9 2.7 70 2.1 WNW 7 9 4 5 1005.2 1005.1 0.0
27/09:30pm 7.8 5.0 2.1 67 2.4 WNW 6 7 3 4 1005.1 1005.0 0.0
27/09:00pm 10.1 7.1 2.2 58 3.4 W 7 9 4 5 1004.8 1004.7 0.0
27/08:30pm 13.0 9.5 1.0 44 5.1 WSW 9 13 5 7 1004.6 1004.5 0.0
27/08:00pm 13.6 10.0 0.6 41 5.5 WSW 9 13 5 7 1004.5 1004.4 0.0
27/07:30pm 14.4 9.7 0.6 39 5.9 WSW 15 24 8 13 1004.2 1004.1 0.0
27/07:00pm 14.7 9.5 0.2 37 6.2 WSW 17 28 9 15 1003.9 1003.8 0.0
27/06:30pm 14.0 10.0 0.3 39 5.8 WSW 11 17 6 9 1003.4 1003.3 0.0
27/06:00pm 14.8 10.8 0.6 38 6.1 WSW 11 13 6 7 1002.7 1002.6 0.0
27/05:30pm 15.5 11.4 0.1 35 6.5 WSW 11 15 6 8 1002.1 1002.0 0.0
27/05:00pm 16.1 12.1 0.3 34 6.8 WSW 11 15 6 8 1001.3 1001.2 0.0
27/04:30pm 16.9 11.3 -0.3 31 7.3 WSW 19 30 10 16 1000.9 1000.8 0.0
27/04:00pm 17.2 11.3 -0.5 30 7.6 WSW 20 39 11 21 1000.4 1000.3 0.0
27/03:30pm 17.5 11.2 -0.7 29 7.7 WSW 22 39 12 21 999.9 999.8 0.0
27/03:00pm 18.2 12.0 -0.1 29 8.0 WSW 22 39 12 21 999.5 999.4 0.0
27/02:30pm 17.9 12.2 -0.4 29 7.9 WSW 19 33 10 18 999.3 999.2 0.0
27/02:00pm 18.6 12.4 -0.2 28 8.2 WSW 22 30 12 16 999.1 999.0 0.0
27/01:30pm 17.4 11.1 -0.8 29 7.7 WSW 22 35 12 19 999.0 998.9 0.0
27/01:00pm 17.9 11.4 0.6 31 7.6 SW 24 35 13 19 999.0 998.9 0.0
27/12:30pm 17.1 10.2 -0.1 31 7.4 WSW 26 37 14 20 999.4 999.3 0.0
27/12:00pm 17.3 9.6 0.0 31 7.5 WSW 30 50 16 27 999.3 999.2 0.0
27/11:55am 17.8 10.1 0.0 30 7.7 WSW 30 50 16 27 999.3 999.2 0.0
27/11:30am 17.6 10.6 -0.2 30 7.7 WSW 26 44 14 24 999.5 999.4 0.0
27/11:00am 16.9 11.1 0.1 32 7.3 WSW 20 37 11 20 1000.1 1000.0 0.0
27/10:30am 16.3 10.1 0.0 33 7.0 WSW 22 33 12 18 1000.6 1000.5 0.0
27/10:00am 16.2 10.7 0.7 35 6.8 SW 19 28 10 15 1000.9 1000.8 0.0
27/09:30am 15.4 9.7 0.8 37 6.3 WSW 20 32 11 17 1000.9 1000.8 0.0
27/09:00am 14.3 9.8 2.2 44 5.4 WSW 15 22 8 12 1000.8 1000.7 0.0
27/08:30am 11.9 8.1 3.7 57 3.6 WSW 13 19 7 10 1000.7 1000.6 0.0
27/08:28am 11.7 7.9 4.0 59 3.4 WSW 13 19 7 10 1000.7 1000.6 0.0
27/08:00am 6.7 4.6 5.7 93 0.4 W 6 17 3 9 1000.9 1000.8 0.0
27/07:30am 4.8 2.7 3.8 93 0.4 WNW 4 9 2 5 1000.7 1000.6 0.0
27/07:00am 4.1 1.5 3.1 93 0.4 W 6 9 3 5 1000.4 1000.3 0.0
27/06:30am 4.4 1.8 3.2 92 0.5 WNW 6 7 3 4 1000.3 1000.2 0.0
27/06:00am 4.7 2.9 3.4 91 0.5 WNW 2 7 1 4 1000.1 1000.0 0.0
27/05:30am 5.3 2.8 3.8 90 0.6 WSW 6 7 3 4 999.9 999.8 0.0
27/05:00am 5.8 3.7 4.1 89 0.7 WNW 4 6 2 3 999.9 999.8 0.0
27/04:30am 6.0 3.5 4.0 87 0.8 WSW 6 9 3 5 999.8 999.7 0.0
27/04:00am 7.1 4.8 4.6 84 1.1 W 6 7 3 4 999.7 999.6 0.0
27/03:30am 8.4 5.4 4.2 75 1.8 W 9 11 5 6 999.5 999.4 0.0
27/03:00am 8.9 6.4 3.5 69 2.3 N 6 9 3 5 999.5 999.4 0.0
27/02:30am 10.6 7.9 3.6 62 3.1 WNW 7 17 4 9 999.6 999.5 0.0
27/02:00am 11.7 8.7 4.0 59 3.5 W 9 13 5 7 999.6 999.5 0.0
27/01:30am 12.5 8.8 4.2 57 3.8 WSW 13 17 7 9 999.5 999.4 0.0
27/01:00am 11.8 8.9 4.5 61 3.3 W 9 15 5 8 999.9 999.8 0.0
27/12:30am 10.7 8.1 6.1 73 2.1 WSW 9 15 5 8 1000.1 1000.0 0.0
27/12:00am 8.1 5.4 7.2 94 0.4 W 11 15 6 8 1000.1 1000.0 0.0
 
Date/Time
EST
Temp
°C
App
Temp
°C
Dew
Point
Rel
Hum
%
Delta-T
°C
Wind Press
QNH
hPa
Press
MSL
hPa
Rain
since 9 am
mm
Dir
 
Spd
km/h
Gust
km/h
Spd
kts
Gust
kts
26/11:30pm 7.4 5.3 6.5 94 0.4 W 7 11 4 6 1000.3 1000.2 0.0
26/11:08pm 8.6 5.6 7.8 95 0.4 SW 13 19 7 10 1000.1 1000.0 0.0
26/11:00pm 8.1 5.8 7.3 95 0.4 SSW 9 15 5 8 1000.0 999.9 0.0
26/10:38pm 6.5 5.5 5.6 94 0.4 CALM 0 0 0 0 999.8 999.7 0.0
26/10:30pm 7.3 6.1 6.4 94 0.4 WNW 2 6 1 3 999.9 999.8 0.0
26/10:00pm 7.2 5.2 6.3 94 0.4 WSW 6 7 3 4 999.9 999.8 0.0
26/09:30pm 7.9 6.0 6.8 93 0.5 W 6 11 3 6 1000.1 1000.0 0.0
26/09:00pm 9.2 7.5 8.3 94 0.4 SE 7 11 4 6 1000.0 999.9 0.0
26/08:30pm 9.1 7.3 8.0 93 0.5 WSW 7 11 4 6 1000.1 1000.0 0.0
26/08:00pm 9.0 7.2 7.8 92 0.6 WNW 7 11 4 6 1000.0 999.9 0.0
26/07:30pm 10.3 8.7 8.9 91 0.7 WNW 7 11 4 6 1000.1 1000.0 0.0
26/07:00pm 11.2 9.8 9.5 89 0.9 WNW 7 9 4 5 999.9 999.8 0.0
26/06:30pm 12.4 10.7 10.0 85 1.2 WSW 9 11 5 6 999.8 999.7 0.0
26/06:00pm 13.5 11.7 10.7 83 1.5 SSW 11 17 6 9 999.5 999.4 0.0
26/05:30pm 13.9 11.4 11.1 83 1.5 SSE 15 20 8 11 999.0 998.9 0.0
26/05:00pm 13.5 13.1 8.4 71 2.6 CALM 0 7 0 4 998.0 997.9 0.0
26/04:30pm 16.0 14.3 7.7 58 4.2 WNW 6 9 3 5 997.8 997.7 0.0
26/04:00pm 17.2 15.1 8.1 55 4.7 NW 9 15 5 8 997.6 997.5 0.0
26/03:30pm 17.1 13.7 7.5 53 4.8 NNW 15 24 8 13 997.6 997.5 0.0
26/03:00pm 18.3 14.6 8.0 51 5.3 NW 17 26 9 14 997.6 997.5 0.0
26/02:30pm 17.9 14.6 8.2 53 5.0 NW 15 24 8 13 997.8 997.7 0.0
26/02:00pm 17.8 13.7 7.8 52 5.1 NNW 19 30 10 16 998.2 998.1 0.0
26/01:30pm 15.6 13.8 7.9 60 3.9 NNW 7 13 4 7 999.0 998.9 0.0
26/01:00pm 15.2 12.9 7.5 60 3.8 NW 9 17 5 9 999.2 999.1 0.0
26/12:30pm 15.0 11.3 7.8 62 3.6 WNW 17 26 9 14 1000.2 1000.1 0.0
26/12:00pm 15.0 11.4 8.5 65 3.3 NNW 17 30 9 16 1001.0 1000.9 0.0
26/11:30am 14.2 11.7 9.6 74 2.4 N 13 17 7 9 1001.6 1001.5 0.0
26/11:00am 13.8 11.9 10.6 81 1.7 N 11 13 6 7 1002.3 1002.2 0.0
26/10:30am 13.6 11.2 10.0 79 1.9 NNW 13 20 7 11 1003.4 1003.3 0.0
26/10:00am 12.5 10.5 10.2 86 1.2 NNW 11 17 6 9 1003.6 1003.5 0.0
26/09:30am 12.0 10.3 9.9 87 1.1 N 9 11 5 6 1003.9 1003.8 0.0
26/09:00am 11.9 10.7 10.3 90 0.8 N 7 9 4 5 1004.3 1004.2 2.0
26/08:30am 11.7 10.4 9.9 89 0.9 N 7 11 4 6 1004.9 1004.8 1.8
26/08:00am 11.4 9.7 9.8 90 0.8 N 9 15 5 8 1005.7 1005.6 1.8
26/07:30am 11.1 9.9 9.7 91 0.7 N 6 11 3 6 1005.6 1005.5 1.6
26/07:00am 11.0 9.6 9.6 91 0.7 NNW 7 11 4 6 1005.8 1005.7 1.6
26/06:30am 11.1 8.9 9.5 90 0.8 NNW 11 15 6 8 1005.9 1005.8 1.4
26/06:00am 10.9 8.8 9.7 92 0.6 N 11 13 6 7 1005.8 1005.7 1.4
26/05:30am 11.2 9.5 10.0 92 0.6 N 9 13 5 7 1006.5 1006.4 1.2
26/05:00am 11.3 9.6 9.9 91 0.7 N 9 13 5 7 1006.8 1006.7 0.8
26/04:30am 11.4 9.2 9.5 88 1.0 NNW 11 13 6 7 1006.9 1006.8 0.6
26/04:00am 11.4 9.1 9.1 86 1.2 NNW 11 15 6 8 1007.2 1007.1 0.4
26/03:30am 11.7 9.3 8.7 82 1.5 NNW 11 13 6 7 1007.7 1007.6 0.0
26/03:00am 11.9 9.8 8.4 79 1.7 NNW 9 13 5 7 1008.1 1008.0 0.0
26/02:30am 12.6 10.9 7.7 72 2.4 N 6 7 3 4 1008.3 1008.3 0.0
26/02:00am 13.2 11.1 5.9 61 3.5 N 6 7 3 4 1008.8 1008.8 0.0
26/01:30am 14.7 12.3 5.2 53 4.5 NNW 7 13 4 7 1009.2 1009.2 0.0
26/01:00am 15.1 11.9 5.0 51 4.8 WNW 11 24 6 13 1009.5 1009.5 0.0
26/12:30am 14.2 11.7 5.0 54 4.3 NNW 7 13 4 7 1009.5 1009.5 0.0
26/12:00am 12.9 11.2 5.8 62 3.3 NNW 4 7 2 4 1010.2 1010.2 0.0
 
Date/Time
EST
Temp
°C
App
Temp
°C
Dew
Point
Rel
Hum
%
Delta-T
°C
Wind Press
QNH
hPa
Press
MSL
hPa
Rain
since 9 am
mm
Dir
 
Spd
km/h
Gust
km/h
Spd
kts
Gust
kts
25/11:30pm 13.4 11.4 6.3 62 3.4 NW 6 9 3 5 1010.7 1010.7 0.0
25/11:00pm 13.6 11.6 6.2 61 3.5 NW 6 11 3 6 1010.7 1010.7 0.0
25/10:30pm 13.7 11.1 6.3 61 3.5 W 9 15 5 8 1011.0 1011.0 0.0
25/10:00pm 13.4 11.5 7.4 67 2.9 WNW 7 9 4 5 1011.1 1011.1 0.0
25/09:30pm 15.0 11.8 5.2 52 4.6 WNW 11 17 6 9 1012.0 1012.0 0.0
25/09:00pm 15.0 11.8 5.2 52 4.6 W 11 17 6 9 1011.5 1011.5 0.0
25/08:30pm 15.0 12.2 5.2 52 4.6 WNW 9 15 5 8 1011.3 1011.3 0.0
25/08:00pm 13.7 10.8 6.3 61 3.5 WNW 11 15 6 8 1011.5 1011.5 0.0
25/07:30pm 11.9 10.2 7.4 74 2.2 WNW 6 7 3 4 1011.8 1011.8 0.0
25/07:00pm 11.9 10.3 7.8 76 2.0 WNW 6 9 3 5 1011.9 1011.9 0.0
25/06:30pm 12.5 10.7 7.2 70 2.6 NW 6 7 3 4 1012.0 1012.0 0.0
25/06:00pm 12.7 10.4 7.4 70 2.6 NW 9 13 5 7 1012.1 1012.1 0.0
25/05:30pm 13.4 11.9 7.0 65 3.1 NNW 4 9 2 5 1011.7 1011.7 0.0
25/05:00pm 15.6 13.1 6.6 55 4.4 N 9 13 5 7 1012.0 1012.0 0.0
25/04:30pm 16.9 12.4 7.0 52 4.9 NNE 20 26 11 14 1011.7 1011.7 0.0
25/04:00pm 17.0 13.2 7.4 53 4.8 NNE 17 20 9 11 1011.8 1011.8 0.0
25/03:30pm 16.5 13.2 6.3 51 5.0 NNE 13 17 7 9 1012.0 1012.0 0.0
25/03:00pm 18.0 13.7 5.2 43 6.2 NE 17 22 9 12 1011.9 1011.9 0.0
25/02:30pm 17.3 12.8 5.9 47 5.5 NE 19 24 10 13 1011.8 1011.8 0.0
25/02:00pm 18.1 13.4 5.3 43 6.2 NE 19 22 10 12 1012.2 1012.2 0.0
25/01:30pm 18.0 13.8 5.9 45 5.9 NE 17 20 9 11 1012.7 1012.7 0.0
25/01:00pm 18.1 14.0 4.3 40 6.5 NE 15 19 8 10 1013.0 1013.0 0.0
25/12:30pm 17.9 13.8 2.2 35 7.1 NNE 13 19 7 10 1013.7 1013.7 0.0
25/12:00pm 17.5 13.3 1.9 35 7.0 N 13 20 7 11 1014.3 1014.3 0.0
25/11:30am 17.1 13.3 4.1 42 6.1 NNE 13 20 7 11 1014.9 1014.9 0.0
25/11:00am 16.5 13.0 5.5 48 5.3 N 13 17 7 9 1015.5 1015.5 0.0
25/10:30am 15.6 13.1 4.6 48 5.1 N 7 9 4 5 1016.2 1016.2 0.0
25/10:00am 13.8 11.4 4.1 52 4.4 NW 6 7 3 4 1016.6 1016.6 0.0
25/09:30am 11.3 9.0 4.7 64 3.0 SSW 6 7 3 4 1017.0 1017.0 0.0
25/09:00am 9.6 7.7 5.0 73 2.1 W 4 7 2 4 1017.2 1017.2 0.0
25/08:30am 7.5 5.1 5.3 86 1.0 SW 7 13 4 7 1017.2 1017.2 0.0

Other Formats:

Comma delimited format used in spreadsheet applications
http://www.bom.gov.au/fwo/IDN60801/IDN60801.95937.axf

JavaScript Object Notation format (JSON) in row-major order
http://www.bom.gov.au/fwo/IDN60801/IDN60801.95937.json